sensor_id;sensor_type;location;lat;lon;timestamp;temperature;humidity
9537;DHT22;4807;48.024;11.726;2022-07-23T00:02:48;21.90;92.30
9537;DHT22;4807;48.024;11.726;2022-07-23T00:05:56;22.00;92.20
9537;DHT22;4807;48.024;11.726;2022-07-23T00:09:05;22.00;93.00
9537;DHT22;4807;48.024;11.726;2022-07-23T00:12:14;21.90;93.30
9537;DHT22;4807;48.024;11.726;2022-07-23T00:15:23;21.80;93.80
9537;DHT22;4807;48.024;11.726;2022-07-23T00:18:31;21.60;94.20
9537;DHT22;4807;48.024;11.726;2022-07-23T00:21:39;21.60;94.10
9537;DHT22;4807;48.024;11.726;2022-07-23T00:24:48;21.50;95.00
9537;DHT22;4807;48.024;11.726;2022-07-23T00:28:18;21.40;94.90
9537;DHT22;4807;48.024;11.726;2022-07-23T00:31:26;21.30;95.20
9537;DHT22;4807;48.024;11.726;2022-07-23T00:34:35;21.20;94.70
9537;DHT22;4807;48.024;11.726;2022-07-23T00:37:44;21.20;93.90
9537;DHT22;4807;48.024;11.726;2022-07-23T00:40:52;21.20;94.30
9537;DHT22;4807;48.024;11.726;2022-07-23T00:44:20;21.20;93.80
9537;DHT22;4807;48.024;11.726;2022-07-23T00:47:29;21.30;92.90
9537;DHT22;4807;48.024;11.726;2022-07-23T00:50:37;21.20;93.10
9537;DHT22;4807;48.024;11.726;2022-07-23T00:53:46;21.20;93.20
9537;DHT22;4807;48.024;11.726;2022-07-23T00:56:57;21.20;93.20
9537;DHT22;4807;48.024;11.726;2022-07-23T01:00:09;21.30;92.90
9537;DHT22;4807;48.024;11.726;2022-07-23T01:03:19;21.30;93.10
9537;DHT22;4807;48.024;11.726;2022-07-23T01:06:29;21.30;93.00
9537;DHT22;4807;48.024;11.726;2022-07-23T01:09:40;21.30;93.30
9537;DHT22;4807;48.024;11.726;2022-07-23T01:12:50;21.40;93.10
9537;DHT22;4807;48.024;11.726;2022-07-23T01:16:00;21.30;93.10
9537;DHT22;4807;48.024;11.726;2022-07-23T01:19:09;21.30;93.30
9537;DHT22;4807;48.024;11.726;2022-07-23T01:22:19;21.30;93.40
9537;DHT22;4807;48.024;11.726;2022-07-23T01:25:29;21.30;93.20
9537;DHT22;4807;48.024;11.726;2022-07-23T01:28:41;21.40;93.20
9537;DHT22;4807;48.024;11.726;2022-07-23T01:31:49;21.70;92.90
9537;DHT22;4807;48.024;11.726;2022-07-23T01:34:58;21.80;92.50
9537;DHT22;4807;48.024;11.726;2022-07-23T01:38:07;22.00;91.50
9537;DHT22;4807;48.024;11.726;2022-07-23T01:41:20;22.00;89.90
9537;DHT22;4807;48.024;11.726;2022-07-23T01:44:28;22.00;86.10
9537;DHT22;4807;48.024;11.726;2022-07-23T01:47:37;21.80;84.80
9537;DHT22;4807;48.024;11.726;2022-07-23T01:50:46;21.60;81.20
9537;DHT22;4807;48.024;11.726;2022-07-23T01:54:05;21.50;78.10
9537;DHT22;4807;48.024;11.726;2022-07-23T01:57:15;21.50;77.80
9537;DHT22;4807;48.024;11.726;2022-07-23T02:00:24;21.40;79.90
9537;DHT22;4807;48.024;11.726;2022-07-23T02:03:33;21.20;82.20
9537;DHT22;4807;48.024;11.726;2022-07-23T02:06:41;21.00;83.90
9537;DHT22;4807;48.024;11.726;2022-07-23T02:09:50;20.80;85.30
9537;DHT22;4807;48.024;11.726;2022-07-23T02:13:00;20.70;86.90
9537;DHT22;4807;48.024;11.726;2022-07-23T02:16:09;20.60;87.70
9537;DHT22;4807;48.024;11.726;2022-07-23T02:19:17;20.50;88.00
9537;DHT22;4807;48.024;11.726;2022-07-23T02:22:26;20.50;88.50
9537;DHT22;4807;48.024;11.726;2022-07-23T02:25:34;20.50;88.40
9537;DHT22;4807;48.024;11.726;2022-07-23T02:28:44;20.50;88.40
9537;DHT22;4807;48.024;11.726;2022-07-23T02:31:52;20.60;88.50
9537;DHT22;4807;48.024;11.726;2022-07-23T02:35:02;20.60;88.70
9537;DHT22;4807;48.024;11.726;2022-07-23T02:38:12;20.60;88.60
9537;DHT22;4807;48.024;11.726;2022-07-23T02:41:20;20.60;89.10
9537;DHT22;4807;48.024;11.726;2022-07-23T02:44:30;20.60;90.00
9537;DHT22;4807;48.024;11.726;2022-07-23T02:47:41;20.40;90.70
9537;DHT22;4807;48.024;11.726;2022-07-23T02:50:49;22.60;92.10
9537;DHT22;4807;48.024;11.726;2022-07-23T02:54:05;20.30;91.00
9537;DHT22;4807;48.024;11.726;2022-07-23T02:57:15;20.30;91.00
9537;DHT22;4807;48.024;11.726;2022-07-23T03:00:25;20.20;91.10
9537;DHT22;4807;48.024;11.726;2022-07-23T03:03:36;20.10;91.20
9537;DHT22;4807;48.024;11.726;2022-07-23T03:06:45;20.20;91.20
9537;DHT22;4807;48.024;11.726;2022-07-23T03:09:54;20.20;91.10
9537;DHT22;4807;48.024;11.726;2022-07-23T03:13:02;20.20;90.80
9537;DHT22;4807;48.024;11.726;2022-07-23T03:16:12;20.30;90.40
9537;DHT22;4807;48.024;11.726;2022-07-23T03:19:22;20.40;90.40
9537;DHT22;4807;48.024;11.726;2022-07-23T03:22:31;20.40;91.20
9537;DHT22;4807;48.024;11.726;2022-07-23T03:25:39;20.20;91.50
9537;DHT22;4807;48.024;11.726;2022-07-23T03:28:48;20.20;92.20
9537;DHT22;4807;48.024;11.726;2022-07-23T03:31:57;20.10;92.00
9537;DHT22;4807;48.024;11.726;2022-07-23T03:35:06;20.10;92.00
9537;DHT22;4807;48.024;11.726;2022-07-23T03:38:21;20.10;92.00
9537;DHT22;4807;48.024;11.726;2022-07-23T03:41:30;20.00;92.40
9537;DHT22;4807;48.024;11.726;2022-07-23T03:44:38;19.90;92.80
9537;DHT22;4807;48.024;11.726;2022-07-23T03:47:48;19.90;92.20
9537;DHT22;4807;48.024;11.726;2022-07-23T03:50:56;19.90;92.50
9537;DHT22;4807;48.024;11.726;2022-07-23T03:54:05;19.90;92.20
9537;DHT22;4807;48.024;11.726;2022-07-23T03:57:13;20.00;91.80
9537;DHT22;4807;48.024;11.726;2022-07-23T04:00:21;20.10;91.40
9537;DHT22;4807;48.024;11.726;2022-07-23T04:03:32;20.10;91.10
9537;DHT22;4807;48.024;11.726;2022-07-23T04:06:41;20.30;91.60
9537;DHT22;4807;48.024;11.726;2022-07-23T04:09:49;20.30;91.50
9537;DHT22;4807;48.024;11.726;2022-07-23T04:12:58;20.30;91.70
9537;DHT22;4807;48.024;11.726;2022-07-23T04:16:07;20.30;91.80
9537;DHT22;4807;48.024;11.726;2022-07-23T04:19:17;20.30;91.50
9537;DHT22;4807;48.024;11.726;2022-07-23T04:22:39;20.20;91.60
9537;DHT22;4807;48.024;11.726;2022-07-23T04:25:48;20.20;91.30
9537;DHT22;4807;48.024;11.726;2022-07-23T04:28:57;20.40;91.40
9537;DHT22;4807;48.024;11.726;2022-07-23T04:32:05;20.30;91.60
9537;DHT22;4807;48.024;11.726;2022-07-23T04:35:16;20.20;91.90
9537;DHT22;4807;48.024;11.726;2022-07-23T04:38:25;20.10;92.30
9537;DHT22;4807;48.024;11.726;2022-07-23T04:41:38;20.20;92.40
9537;DHT22;4807;48.024;11.726;2022-07-23T04:44:50;20.20;92.30
9537;DHT22;4807;48.024;11.726;2022-07-23T04:47:58;20.20;92.30
9537;DHT22;4807;48.024;11.726;2022-07-23T04:51:10;20.20;92.70
9537;DHT22;4807;48.024;11.726;2022-07-23T04:54:19;20.30;92.20
9537;DHT22;4807;48.024;11.726;2022-07-23T04:57:27;20.30;92.10
9537;DHT22;4807;48.024;11.726;2022-07-23T05:00:35;20.30;92.60
9537;DHT22;4807;48.024;11.726;2022-07-23T05:03:44;20.40;92.20
9537;DHT22;4807;48.024;11.726;2022-07-23T05:06:54;20.50;92.40
9537;DHT22;4807;48.024;11.726;2022-07-23T05:10:03;20.70;92.30
9537;DHT22;4807;48.024;11.726;2022-07-23T05:13:14;20.80;91.10
9537;DHT22;4807;48.024;11.726;2022-07-23T05:16:23;20.90;91.40
9537;DHT22;4807;48.024;11.726;2022-07-23T05:19:36;21.00;91.50
9537;DHT22;4807;48.024;11.726;2022-07-23T05:22:46;21.10;91.60
9537;DHT22;4807;48.024;11.726;2022-07-23T05:25:55;21.20;91.30
9537;DHT22;4807;48.024;11.726;2022-07-23T05:29:08;21.30;91.40
9537;DHT22;4807;48.024;11.726;2022-07-23T05:32:17;21.30;91.70
9537;DHT22;4807;48.024;11.726;2022-07-23T05:35:34;21.20;92.40
9537;DHT22;4807;48.024;11.726;2022-07-23T05:39:01;21.10;92.20
9537;DHT22;4807;48.024;11.726;2022-07-23T05:42:14;20.90;92.10
9537;DHT22;4807;48.024;11.726;2022-07-23T05:45:23;20.90;92.40
9537;DHT22;4807;48.024;11.726;2022-07-23T05:48:31;20.90;92.50
9537;DHT22;4807;48.024;11.726;2022-07-23T05:51:48;21.00;92.80
9537;DHT22;4807;48.024;11.726;2022-07-23T05:55:08;21.10;93.10
9537;DHT22;4807;48.024;11.726;2022-07-23T05:58:21;21.10;92.70
9537;DHT22;4807;48.024;11.726;2022-07-23T06:01:33;21.10;92.50
9537;DHT22;4807;48.024;11.726;2022-07-23T06:04:46;21.30;92.60
9537;DHT22;4807;48.024;11.726;2022-07-23T06:08:04;21.60;92.10
9537;DHT22;4807;48.024;11.726;2022-07-23T06:11:13;21.70;92.20
9537;DHT22;4807;48.024;11.726;2022-07-23T06:14:22;21.70;92.40
9537;DHT22;4807;48.024;11.726;2022-07-23T06:17:34;21.60;92.00
9537;DHT22;4807;48.024;11.726;2022-07-23T06:20:44;21.50;92.20
9537;DHT22;4807;48.024;11.726;2022-07-23T06:23:56;21.40;91.90
9537;DHT22;4807;48.024;11.726;2022-07-23T06:27:10;21.20;92.50
9537;DHT22;4807;48.024;11.726;2022-07-23T06:30:18;21.10;92.70
9537;DHT22;4807;48.024;11.726;2022-07-23T06:33:27;21.00;93.00
9537;DHT22;4807;48.024;11.726;2022-07-23T06:36:35;21.00;93.30
9537;DHT22;4807;48.024;11.726;2022-07-23T06:39:45;21.10;93.20
9537;DHT22;4807;48.024;11.726;2022-07-23T06:42:55;21.20;93.20
9537;DHT22;4807;48.024;11.726;2022-07-23T06:46:06;21.20;93.60
9537;DHT22;4807;48.024;11.726;2022-07-23T06:49:14;21.20;94.40
9537;DHT22;4807;48.024;11.726;2022-07-23T06:52:23;21.10;94.70
9537;DHT22;4807;48.024;11.726;2022-07-23T06:55:32;21.10;94.60
9537;DHT22;4807;48.024;11.726;2022-07-23T06:58:46;21.20;94.70
9537;DHT22;4807;48.024;11.726;2022-07-23T07:01:54;21.10;94.80
9537;DHT22;4807;48.024;11.726;2022-07-23T07:05:06;21.10;94.80
9537;DHT22;4807;48.024;11.726;2022-07-23T07:08:15;21.30;94.70
9537;DHT22;4807;48.024;11.726;2022-07-23T07:11:23;21.50;93.80
9537;DHT22;4807;48.024;11.726;2022-07-23T07:14:36;21.50;93.80
9537;DHT22;4807;48.024;11.726;2022-07-23T07:17:44;21.90;93.40
9537;DHT22;4807;48.024;11.726;2022-07-23T07:20:53;21.90;93.30
9537;DHT22;4807;48.024;11.726;2022-07-23T07:24:03;22.00;93.10
9537;DHT22;4807;48.024;11.726;2022-07-23T07:27:13;22.20;93.10
9537;DHT22;4807;48.024;11.726;2022-07-23T07:30:23;22.40;92.50
9537;DHT22;4807;48.024;11.726;2022-07-23T07:33:37;22.60;91.90
9537;DHT22;4807;48.024;11.726;2022-07-23T07:36:47;22.40;92.30
9537;DHT22;4807;48.024;11.726;2022-07-23T07:39:56;22.60;92.30
9537;DHT22;4807;48.024;11.726;2022-07-23T07:43:05;22.80;92.20
9537;DHT22;4807;48.024;11.726;2022-07-23T07:46:15;22.80;91.50
9537;DHT22;4807;48.024;11.726;2022-07-23T07:49:23;22.80;91.40
9537;DHT22;4807;48.024;11.726;2022-07-23T07:52:39;22.80;91.60
9537;DHT22;4807;48.024;11.726;2022-07-23T07:55:47;22.70;91.60
9537;DHT22;4807;48.024;11.726;2022-07-23T07:58:57;22.50;91.90
9537;DHT22;4807;48.024;11.726;2022-07-23T08:02:09;22.60;92.10
9537;DHT22;4807;48.024;11.726;2022-07-23T08:05:20;22.50;91.70
9537;DHT22;4807;48.024;11.726;2022-07-23T08:08:34;22.60;91.90
9537;DHT22;4807;48.024;11.726;2022-07-23T08:11:42;22.60;92.00
9537;DHT22;4807;48.024;11.726;2022-07-23T08:14:50;22.60;91.90
9537;DHT22;4807;48.024;11.726;2022-07-23T08:18:01;22.70;91.40
9537;DHT22;4807;48.024;11.726;2022-07-23T08:21:09;22.30;91.60
9537;DHT22;4807;48.024;11.726;2022-07-23T08:24:18;22.20;92.10
9537;DHT22;4807;48.024;11.726;2022-07-23T08:27:26;22.30;92.10
9537;DHT22;4807;48.024;11.726;2022-07-23T08:30:36;22.60;91.70
9537;DHT22;4807;48.024;11.726;2022-07-23T08:33:47;22.70;90.90
9537;DHT22;4807;48.024;11.726;2022-07-23T08:36:55;23.00;90.40
9537;DHT22;4807;48.024;11.726;2022-07-23T08:40:04;23.20;90.20
9537;DHT22;4807;48.024;11.726;2022-07-23T08:43:16;23.40;90.20
9537;DHT22;4807;48.024;11.726;2022-07-23T08:46:27;23.50;89.90
9537;DHT22;4807;48.024;11.726;2022-07-23T08:49:38;23.40;89.50
9537;DHT22;4807;48.024;11.726;2022-07-23T08:52:48;23.60;90.10
9537;DHT22;4807;48.024;11.726;2022-07-23T08:56:02;24.00;88.70
9537;DHT22;4807;48.024;11.726;2022-07-23T08:59:11;24.20;86.40
9537;DHT22;4807;48.024;11.726;2022-07-23T09:02:20;24.60;85.10
9537;DHT22;4807;48.024;11.726;2022-07-23T09:05:32;24.30;84.80
9537;DHT22;4807;48.024;11.726;2022-07-23T09:08:41;23.90;86.10
9537;DHT22;4807;48.024;11.726;2022-07-23T09:12:02;23.60;86.50
9537;DHT22;4807;48.024;11.726;2022-07-23T09:15:12;23.60;87.50
9537;DHT22;4807;48.024;11.726;2022-07-23T09:18:30;23.40;87.20
9537;DHT22;4807;48.024;11.726;2022-07-23T09:21:41;23.30;87.70
9537;DHT22;4807;48.024;11.726;2022-07-23T09:25:04;23.30;88.80
9537;DHT22;4807;48.024;11.726;2022-07-23T09:28:16;23.70;88.40
9537;DHT22;4807;48.024;11.726;2022-07-23T09:31:25;23.70;87.40
9537;DHT22;4807;48.024;11.726;2022-07-23T09:34:39;23.60;87.20
9537;DHT22;4807;48.024;11.726;2022-07-23T09:38:02;23.70;88.00
9537;DHT22;4807;48.024;11.726;2022-07-23T09:41:11;23.80;88.30
9537;DHT22;4807;48.024;11.726;2022-07-23T09:44:21;23.90;87.00
9537;DHT22;4807;48.024;11.726;2022-07-23T09:47:34;24.30;87.50
9537;DHT22;4807;48.024;11.726;2022-07-23T09:50:44;24.80;86.10
9537;DHT22;4807;48.024;11.726;2022-07-23T09:53:54;25.30;83.80
9537;DHT22;4807;48.024;11.726;2022-07-23T09:57:04;25.50;82.20
9537;DHT22;4807;48.024;11.726;2022-07-23T10:00:16;25.90;81.50
9537;DHT22;4807;48.024;11.726;2022-07-23T10:03:25;26.80;81.10
9537;DHT22;4807;48.024;11.726;2022-07-23T10:06:53;27.40;77.10
9537;DHT22;4807;48.024;11.726;2022-07-23T10:10:25;27.40;74.30
9537;DHT22;4807;48.024;11.726;2022-07-23T10:14:03;27.20;77.20
9537;DHT22;4807;48.024;11.726;2022-07-23T10:17:32;26.60;74.40
9537;DHT22;4807;48.024;11.726;2022-07-23T10:20:40;26.60;75.20
9537;DHT22;4807;48.024;11.726;2022-07-23T10:24:03;26.40;78.10
9537;DHT22;4807;48.024;11.726;2022-07-23T10:27:37;27.10;77.00
9537;DHT22;4807;48.024;11.726;2022-07-23T10:31:02;27.60;75.80
9537;DHT22;4807;48.024;11.726;2022-07-23T10:34:44;27.80;69.90
9537;DHT22;4807;48.024;11.726;2022-07-23T10:38:05;27.80;69.80
9537;DHT22;4807;48.024;11.726;2022-07-23T10:41:31;27.60;73.20
9537;DHT22;4807;48.024;11.726;2022-07-23T10:44:43;27.70;72.60
9537;DHT22;4807;48.024;11.726;2022-07-23T10:47:53;28.20;72.70
9537;DHT22;4807;48.024;11.726;2022-07-23T10:51:10;28.30;68.10
9537;DHT22;4807;48.024;11.726;2022-07-23T10:54:21;28.20;69.00
9537;DHT22;4807;48.024;11.726;2022-07-23T10:57:30;28.00;71.30
9537;DHT22;4807;48.024;11.726;2022-07-23T11:00:40;27.90;72.00
9537;DHT22;4807;48.024;11.726;2022-07-23T11:03:56;27.70;71.90
9537;DHT22;4807;48.024;11.726;2022-07-23T11:07:07;27.40;74.10
9537;DHT22;4807;48.024;11.726;2022-07-23T11:10:32;27.30;74.30
9537;DHT22;4807;48.024;11.726;2022-07-23T11:13:48;27.60;72.90
9537;DHT22;4807;48.024;11.726;2022-07-23T11:16:58;27.90;73.00
9537;DHT22;4807;48.024;11.726;2022-07-23T11:20:16;27.80;70.30
9537;DHT22;4807;48.024;11.726;2022-07-23T11:23:59;27.40;71.40
9537;DHT22;4807;48.024;11.726;2022-07-23T11:27:10;26.80;72.60
9537;DHT22;4807;48.024;11.726;2022-07-23T11:30:38;26.30;74.10
9537;DHT22;4807;48.024;11.726;2022-07-23T11:34:27;26.10;76.20
9537;DHT22;4807;48.024;11.726;2022-07-23T11:37:39;25.70;74.90
9537;DHT22;4807;48.024;11.726;2022-07-23T11:40:50;25.80;75.80
9537;DHT22;4807;48.024;11.726;2022-07-23T11:43:59;25.60;76.30
9537;DHT22;4807;48.024;11.726;2022-07-23T11:47:09;25.50;76.30
9537;DHT22;4807;48.024;11.726;2022-07-23T11:50:23;25.30;76.70
9537;DHT22;4807;48.024;11.726;2022-07-23T11:53:34;25.20;77.90
9537;DHT22;4807;48.024;11.726;2022-07-23T11:56:55;25.10;79.50
9537;DHT22;4807;48.024;11.726;2022-07-23T12:00:05;25.20;79.00
9537;DHT22;4807;48.024;11.726;2022-07-23T12:03:18;25.50;79.80
9537;DHT22;4807;48.024;11.726;2022-07-23T12:06:28;25.70;78.40
9537;DHT22;4807;48.024;11.726;2022-07-23T12:09:36;25.90;78.00
9537;DHT22;4807;48.024;11.726;2022-07-23T12:12:47;25.70;77.30
9537;DHT22;4807;48.024;11.726;2022-07-23T12:15:59;26.50;78.70
9537;DHT22;4807;48.024;11.726;2022-07-23T12:19:08;26.00;76.90
9537;DHT22;4807;48.024;11.726;2022-07-23T12:22:17;25.90;76.30
9537;DHT22;4807;48.024;11.726;2022-07-23T12:25:28;25.70;76.90
9537;DHT22;4807;48.024;11.726;2022-07-23T12:28:37;25.40;77.40
9537;DHT22;4807;48.024;11.726;2022-07-23T12:31:47;25.30;78.20
9537;DHT22;4807;48.024;11.726;2022-07-23T12:35:06;25.00;78.30
9537;DHT22;4807;48.024;11.726;2022-07-23T12:38:21;25.00;79.30
9537;DHT22;4807;48.024;11.726;2022-07-23T12:41:50;24.90;78.50
9537;DHT22;4807;48.024;11.726;2022-07-23T12:55:37;24.20;79.10
9537;DHT22;4807;48.024;11.726;2022-07-23T12:59:23;25.80;78.20
9537;DHT22;4807;48.024;11.726;2022-07-23T13:02:45;25.20;76.30
9537;DHT22;4807;48.024;11.726;2022-07-23T13:05:55;25.00;78.40
9537;DHT22;4807;48.024;11.726;2022-07-23T13:09:05;25.30;76.60
9537;DHT22;4807;48.024;11.726;2022-07-23T13:12:19;25.50;76.20
9537;DHT22;4807;48.024;11.726;2022-07-23T13:15:28;25.70;75.10
9537;DHT22;4807;48.024;11.726;2022-07-23T13:18:37;25.90;74.50
9537;DHT22;4807;48.024;11.726;2022-07-23T13:21:46;25.90;74.10
9537;DHT22;4807;48.024;11.726;2022-07-23T13:24:55;26.00;74.60
9537;DHT22;4807;48.024;11.726;2022-07-23T13:28:05;26.10;74.70
9537;DHT22;4807;48.024;11.726;2022-07-23T13:31:16;26.00;74.10
9537;DHT22;4807;48.024;11.726;2022-07-23T13:34:25;26.30;74.30
9537;DHT22;4807;48.024;11.726;2022-07-23T13:37:33;26.40;73.80
9537;DHT22;4807;48.024;11.726;2022-07-23T13:40:45;26.40;74.50
9537;DHT22;4807;48.024;11.726;2022-07-23T13:43:57;26.20;73.30
9537;DHT22;4807;48.024;11.726;2022-07-23T13:47:09;26.00;75.50
9537;DHT22;4807;48.024;11.726;2022-07-23T13:50:18;25.90;75.90
9537;DHT22;4807;48.024;11.726;2022-07-23T13:53:28;25.70;76.90
9537;DHT22;4807;48.024;11.726;2022-07-23T13:56:37;25.50;78.70
9537;DHT22;4807;48.024;11.726;2022-07-23T13:59:47;25.30;78.80
9537;DHT22;4807;48.024;11.726;2022-07-23T14:02:57;25.20;79.20
9537;DHT22;4807;48.024;11.726;2022-07-23T14:06:06;24.90;80.00
9537;DHT22;4807;48.024;11.726;2022-07-23T14:09:23;24.70;80.40
9537;DHT22;4807;48.024;11.726;2022-07-23T14:12:33;24.60;81.50
9537;DHT22;4807;48.024;11.726;2022-07-23T14:15:44;24.50;82.00
9537;DHT22;4807;48.024;11.726;2022-07-23T14:18:53;24.40;82.50
9537;DHT22;4807;48.024;11.726;2022-07-23T14:22:02;24.20;82.70
9537;DHT22;4807;48.024;11.726;2022-07-23T14:25:12;24.10;84.40
9537;DHT22;4807;48.024;11.726;2022-07-23T14:28:21;24.30;87.60
9537;DHT22;4807;48.024;11.726;2022-07-23T14:31:31;23.60;90.10
9537;DHT22;4807;48.024;11.726;2022-07-23T14:34:45;23.60;91.40
9537;DHT22;4807;48.024;11.726;2022-07-23T14:37:59;23.50;90.60
9537;DHT22;4807;48.024;11.726;2022-07-23T14:41:13;23.30;91.20
9537;DHT22;4807;48.024;11.726;2022-07-23T14:44:23;23.10;90.90
9537;DHT22;4807;48.024;11.726;2022-07-23T14:47:32;23.20;90.60
9537;DHT22;4807;48.024;11.726;2022-07-23T14:50:41;23.20;90.40
9537;DHT22;4807;48.024;11.726;2022-07-23T14:53:50;23.20;90.40
9537;DHT22;4807;48.024;11.726;2022-07-23T14:56:59;23.20;90.50
9537;DHT22;4807;48.024;11.726;2022-07-23T15:00:10;23.30;90.10
9537;DHT22;4807;48.024;11.726;2022-07-23T15:03:23;23.60;90.20
9537;DHT22;4807;48.024;11.726;2022-07-23T15:06:48;24.50;89.00
9537;DHT22;4807;48.024;11.726;2022-07-23T15:09:57;25.30;85.80
9537;DHT22;4807;48.024;11.726;2022-07-23T15:13:06;25.80;83.10
9537;DHT22;4807;48.024;11.726;2022-07-23T15:16:14;25.90;83.10
9537;DHT22;4807;48.024;11.726;2022-07-23T15:19:25;26.00;81.70
9537;DHT22;4807;48.024;11.726;2022-07-23T15:22:36;26.00;81.10
9537;DHT22;4807;48.024;11.726;2022-07-23T15:25:45;25.90;80.90
9537;DHT22;4807;48.024;11.726;2022-07-23T15:28:57;25.90;81.80
9537;DHT22;4807;48.024;11.726;2022-07-23T15:32:10;25.80;81.40
9537;DHT22;4807;48.024;11.726;2022-07-23T15:35:21;25.90;82.30
9537;DHT22;4807;48.024;11.726;2022-07-23T15:38:30;25.90;82.60
9537;DHT22;4807;48.024;11.726;2022-07-23T15:41:39;25.80;81.80
9537;DHT22;4807;48.024;11.726;2022-07-23T15:44:49;25.90;81.60
9537;DHT22;4807;48.024;11.726;2022-07-23T15:47:59;26.00;81.20
9537;DHT22;4807;48.024;11.726;2022-07-23T15:51:10;25.90;80.40
9537;DHT22;4807;48.024;11.726;2022-07-23T15:54:19;25.60;82.50
9537;DHT22;4807;48.024;11.726;2022-07-23T15:57:28;25.70;82.30
9537;DHT22;4807;48.024;11.726;2022-07-23T16:00:36;26.40;82.40
9537;DHT22;4807;48.024;11.726;2022-07-23T16:03:45;25.80;81.80
9537;DHT22;4807;48.024;11.726;2022-07-23T16:06:55;25.80;81.70
9537;DHT22;4807;48.024;11.726;2022-07-23T16:10:06;25.60;82.20
9537;DHT22;4807;48.024;11.726;2022-07-23T16:13:17;25.90;82.50
9537;DHT22;4807;48.024;11.726;2022-07-23T16:16:25;26.00;81.50
9537;DHT22;4807;48.024;11.726;2022-07-23T16:19:34;26.00;81.80
9537;DHT22;4807;48.024;11.726;2022-07-23T16:22:44;25.90;81.80
9537;DHT22;4807;48.024;11.726;2022-07-23T16:25:53;25.90;82.60
9537;DHT22;4807;48.024;11.726;2022-07-23T16:29:02;26.00;82.00
9537;DHT22;4807;48.024;11.726;2022-07-23T16:32:11;26.00;81.60
9537;DHT22;4807;48.024;11.726;2022-07-23T16:35:19;26.00;81.50
9537;DHT22;4807;48.024;11.726;2022-07-23T16:38:32;26.00;80.40
9537;DHT22;4807;48.024;11.726;2022-07-23T16:41:41;26.10;80.50
9537;DHT22;4807;48.024;11.726;2022-07-23T16:44:50;26.10;81.50
9537;DHT22;4807;48.024;11.726;2022-07-23T16:47:59;25.80;81.40
9537;DHT22;4807;48.024;11.726;2022-07-23T16:51:07;26.80;83.20
9537;DHT22;4807;48.024;11.726;2022-07-23T16:54:17;25.70;82.40
9537;DHT22;4807;48.024;11.726;2022-07-23T16:57:27;26.50;81.30
9537;DHT22;4807;48.024;11.726;2022-07-23T17:00:36;26.90;75.90
9537;DHT22;4807;48.024;11.726;2022-07-23T17:03:46;29.60;71.40
9537;DHT22;4807;48.024;11.726;2022-07-23T17:06:54;30.80;67.60
9537;DHT22;4807;48.024;11.726;2022-07-23T17:10:07;31.10;66.00
9537;DHT22;4807;48.024;11.726;2022-07-23T17:13:18;32.00;63.50
9537;DHT22;4807;48.024;11.726;2022-07-23T17:16:26;32.40;60.60
9537;DHT22;4807;48.024;11.726;2022-07-23T17:19:35;32.50;61.10
9537;DHT22;4807;48.024;11.726;2022-07-23T17:22:44;33.00;58.90
9537;DHT22;4807;48.024;11.726;2022-07-23T17:25:53;33.10;59.00
9537;DHT22;4807;48.024;11.726;2022-07-23T17:29:02;33.10;59.00
9537;DHT22;4807;48.024;11.726;2022-07-23T17:32:11;32.80;58.70
9537;DHT22;4807;48.024;11.726;2022-07-23T17:35:20;31.90;60.50
9537;DHT22;4807;48.024;11.726;2022-07-23T17:38:28;30.30;65.00
9537;DHT22;4807;48.024;11.726;2022-07-23T17:41:38;29.10;68.70
9537;DHT22;4807;48.024;11.726;2022-07-23T17:44:53;28.10;71.30
9537;DHT22;4807;48.024;11.726;2022-07-23T17:48:02;27.30;74.10
9537;DHT22;4807;48.024;11.726;2022-07-23T17:51:10;26.80;75.70
9537;DHT22;4807;48.024;11.726;2022-07-23T17:54:19;26.30;78.20
9537;DHT22;4807;48.024;11.726;2022-07-23T17:57:28;26.00;80.20
9537;DHT22;4807;48.024;11.726;2022-07-23T18:00:37;25.70;81.50
9537;DHT22;4807;48.024;11.726;2022-07-23T18:03:46;25.40;82.60
9537;DHT22;4807;48.024;11.726;2022-07-23T18:06:56;25.20;83.60
9537;DHT22;4807;48.024;11.726;2022-07-23T18:10:05;24.90;84.80
9537;DHT22;4807;48.024;11.726;2022-07-23T18:13:16;24.60;86.00
9537;DHT22;4807;48.024;11.726;2022-07-23T18:16:25;24.20;87.30
9537;DHT22;4807;48.024;11.726;2022-07-23T18:19:33;24.00;88.70
9537;DHT22;4807;48.024;11.726;2022-07-23T18:22:42;23.70;90.00
9537;DHT22;4807;48.024;11.726;2022-07-23T18:25:50;23.40;90.40
9537;DHT22;4807;48.024;11.726;2022-07-23T18:29:00;23.20;90.60
9537;DHT22;4807;48.024;11.726;2022-07-23T18:32:09;23.10;90.90
9537;DHT22;4807;48.024;11.726;2022-07-23T18:35:17;22.90;91.20
9537;DHT22;4807;48.024;11.726;2022-07-23T18:38:25;22.70;91.60
9537;DHT22;4807;48.024;11.726;2022-07-23T18:41:34;22.60;92.00
9537;DHT22;4807;48.024;11.726;2022-07-23T18:44:44;22.50;92.20
9537;DHT22;4807;48.024;11.726;2022-07-23T18:47:53;22.40;92.40
9537;DHT22;4807;48.024;11.726;2022-07-23T18:51:02;22.30;92.60
9537;DHT22;4807;48.024;11.726;2022-07-23T18:54:12;22.20;92.70
9537;DHT22;4807;48.024;11.726;2022-07-23T18:57:20;22.10;93.00
9537;DHT22;4807;48.024;11.726;2022-07-23T19:00:31;22.10;93.20
9537;DHT22;4807;48.024;11.726;2022-07-23T19:03:41;22.00;93.30
9537;DHT22;4807;48.024;11.726;2022-07-23T19:06:50;22.00;93.50
9537;DHT22;4807;48.024;11.726;2022-07-23T19:09:58;22.00;93.80
9537;DHT22;4807;48.024;11.726;2022-07-23T19:13:07;21.90;94.00
9537;DHT22;4807;48.024;11.726;2022-07-23T19:16:18;21.90;94.30
9537;DHT22;4807;48.024;11.726;2022-07-23T19:19:26;21.90;94.30
9537;DHT22;4807;48.024;11.726;2022-07-23T19:22:36;21.90;94.40
9537;DHT22;4807;48.024;11.726;2022-07-23T19:25:44;21.90;94.50
9537;DHT22;4807;48.024;11.726;2022-07-23T19:28:53;21.90;94.50
9537;DHT22;4807;48.024;11.726;2022-07-23T19:32:03;21.90;94.70
9537;DHT22;4807;48.024;11.726;2022-07-23T19:35:12;21.80;95.00
9537;DHT22;4807;48.024;11.726;2022-07-23T19:38:21;21.80;95.20
9537;DHT22;4807;48.024;11.726;2022-07-23T19:41:30;21.70;95.10
9537;DHT22;4807;48.024;11.726;2022-07-23T19:44:38;21.60;95.50
9537;DHT22;4807;48.024;11.726;2022-07-23T19:47:50;21.50;95.70
9537;DHT22;4807;48.024;11.726;2022-07-23T19:51:01;21.40;96.20
9537;DHT22;4807;48.024;11.726;2022-07-23T19:54:09;21.30;96.40
9537;DHT22;4807;48.024;11.726;2022-07-23T19:57:17;21.30;96.80
9537;DHT22;4807;48.024;11.726;2022-07-23T20:00:26;21.20;97.00
9537;DHT22;4807;48.024;11.726;2022-07-23T20:03:35;21.20;97.00
9537;DHT22;4807;48.024;11.726;2022-07-23T20:06:44;21.20;97.00
9537;DHT22;4807;48.024;11.726;2022-07-23T20:09:52;21.10;97.10
9537;DHT22;4807;48.024;11.726;2022-07-23T20:13:00;21.20;97.50
9537;DHT22;4807;48.024;11.726;2022-07-23T20:16:09;21.30;97.20
9537;DHT22;4807;48.024;11.726;2022-07-23T20:19:19;21.30;97.20
9537;DHT22;4807;48.024;11.726;2022-07-23T20:22:27;21.30;97.50
9537;DHT22;4807;48.024;11.726;2022-07-23T20:25:35;21.40;97.20
9537;DHT22;4807;48.024;11.726;2022-07-23T20:28:44;21.50;97.20
9537;DHT22;4807;48.024;11.726;2022-07-23T20:31:54;21.60;97.20
9537;DHT22;4807;48.024;11.726;2022-07-23T20:35:05;21.40;97.30
9537;DHT22;4807;48.024;11.726;2022-07-23T20:38:13;21.40;97.50